Log in

NYSE:DTEDTE Energy Institutional Ownership

$115.63
+0.93 (+0.81 %)
(As of 07/31/2020 04:00 PM ET)
Add
Compare
Today's Range
$113.60
Now: $115.63
$115.88
50-Day Range
$103.76
MA: $108.59
$115.22
52-Week Range
$71.21
Now: $115.63
$135.67
Volume1.03 million shs
Average Volume1.20 million shs
Market Capitalization$22.28 billion
P/E Ratio18.27
Dividend Yield3.50%
Beta0.6

Institutional Ownership

Institutional Ownership Changes (13F Filings) for DTE Energy (NYSE:DTE)

Institutional Ownership Percentage: 72.69%

Institutional Buying and Selling by Quarter


DTE Energy (NYSE DTE) Institutional Buying and Selling

Reporting DateHedge FundShares HeldMarket Value% of PortfolioQuarterly Change in SharesOwnership in Company
7/31/2020Comerica Bank56,482$6.46M0.0%-22.2%0.029%
7/31/2020Ingalls & Snyder LLC8,111$0.87M0.1%-5.8%0.004%
7/31/2020Lincoln National Corp2,070$0.22M0.0%-12.7%0.001%
7/31/2020Cadence Bank NA11,134$1.20M0.5%+10.1%0.006%
7/31/2020Royal London Asset Management Ltd.75,758$8.07M0.1%-1.4%0.039%
7/31/2020Sigma Planning Corp54,181$5.83M0.3%+13.5%0.028%
7/31/2020Barber Financial Group Inc.5,908$0.64M0.2%+3.2%0.003%
7/31/2020Sigma Investment Counselors Inc.8,444$0.91M0.1%-1.7%0.004%
7/31/2020Hussman Strategic Advisors Inc.2,000$0.22M0.1%-80.0%0.001%
7/31/2020UBS Group AG215,218$23.14M0.0%+8.8%0.112%
7/31/2020Mackay Shields LLC33,102$3.56M0.0%-42.0%0.017%
7/30/2020Blue Chip Partners Inc.119,333$12.83M2.5%+2.7%0.062%
7/30/2020JNB Advisors LLC19,405$2.09M0.5%+8.6%0.010%
7/30/2020Signaturefd LLC1,244$0.13M0.0%-19.6%0.001%
7/30/2020Avitas Wealth Management LLC20,785$2.23M0.7%-2.5%0.011%
7/30/2020Huntington National Bank9,401$1.01M0.0%-3.0%0.005%
7/29/2020State of Michigan Retirement System49,223$5.29M0.0%+11.8%0.026%
7/29/2020M&T Bank Corp11,177$1.20M0.0%+5.8%0.006%
7/29/2020Pacer Advisors Inc.16,170$1.74M0.0%N/A0.008%
7/29/2020Cornerstone Advisors Inc.907$98K0.0%+35.8%0.000%
7/28/2020Raymond James & Associates203,749$21.90M0.0%+16.9%0.106%
7/28/2020Zurcher Kantonalbank Zurich Cantonalbank50,771$5.46M0.0%+11.4%0.026%
7/27/2020Lindbrook Capital LLC520$56K0.0%+61.5%0.000%
7/27/2020Nisa Investment Advisors LLC54,550$5.86M0.1%-4.6%0.028%
7/27/2020Executive Wealth Management LLC10,242$1.10M0.2%-75.3%0.005%
7/27/2020Jacobi Capital Management LLC232$0.39M0.1%-93.5%0.000%
7/27/2020Nissay Asset Management Corp Japan ADV18,162$1.95M0.0%+6.3%0.009%
7/27/2020MAI Capital Management3,327$0.36M0.0%-29.1%0.002%
7/27/2020Sumitomo Mitsui Trust Holdings Inc.820,376$88.19M0.1%-2.0%0.426%
7/24/2020NN Investment Partners Holdings N.V.3,874$0.42M0.0%-15.2%0.002%
7/24/2020Dupont Capital Management Corp5,324$0.57M0.0%-27.3%0.003%
7/24/2020World Asset Management Inc6,670$0.72M0.1%-27.9%0.003%
7/24/2020Gulf International Bank UK Ltd45,436$4.88M0.1%+0.6%0.024%
7/24/2020Allworth Financial LP348$37K0.0%-95.3%0.000%
7/23/2020Strs Ohio308,786$33.19M0.1%+5.7%0.160%
7/23/2020Creative Planning21,576$2.32M0.0%-1.1%0.011%
7/23/2020Janney Montgomery Scott LLC14,417$1.55M0.0%-1.6%0.007%
7/22/2020First Trust Advisors LP578,218$62.16M0.1%-14.9%0.300%
7/22/2020Duncker Streett & Co. Inc.1,193$0.13M0.0%-63.8%0.001%
7/22/2020NBT Bank N A NY3,554$0.38M0.1%N/A0.002%
7/22/2020Banque Cantonale Vaudoise3,398$0.37M0.0%-50.0%0.002%
7/22/2020CWM LLC1,368$0.15M0.0%-8.6%0.001%
7/22/2020Sumitomo Life Insurance Co.10,691$1.15M0.1%-6.2%0.006%
7/21/2020Oregon Public Employees Retirement Fund16,972$1.82M0.0%-7.4%0.009%
7/21/2020New York State Teachers Retirement System275,420$29.61M0.1%-0.9%0.143%
7/21/2020Brookstone Capital Management7,433$0.80M0.0%-8.9%0.004%
7/21/2020BBVA USA Bancshares Inc.7,123$0.77M0.0%-2.7%0.004%
7/20/2020Watson Rebecca294$32K0.0%N/A0.000%
7/20/2020Robeco Institutional Asset Management B.V.394,356$42.39M0.1%-37.2%0.205%
7/20/2020Hennessy Advisors Inc.164,504$17.68M1.2%-2.6%0.085%
7/20/2020SG Americas Securities LLC88,261$9.49M0.1%-25.5%0.046%
7/20/2020Capital Investment Advisors LLC7,027$0.76M0.0%-3.1%0.004%
7/20/2020Deroy & Devereaux Private Investment Counsel Inc.11,160$1.20M0.1%N/A0.006%
7/20/2020Belpointe Asset Management LLC2,557$0.28M0.0%+64.9%0.001%
7/17/2020Redpoint Investment Management Pty Ltd14,426$1.55M0.1%-5.5%0.007%
7/17/2020Raymond James Financial Services Advisors Inc.43,520$4.68M0.0%-1.6%0.023%
7/17/2020Trust Co. of Vermont400$43K0.0%+852.4%0.000%
7/17/2020Montecito Bank & Trust4,487$0.48M0.1%+8.1%0.002%
7/16/2020Raymond James Trust N.A.6,715$0.72M0.0%+22.3%0.003%
7/15/2020Stephenson National Bank & Trust810$87K0.1%+51.1%0.000%
7/15/2020Neville Rodie & Shaw Inc.3,500$0.38M0.0%-6.2%0.002%
7/15/2020First Citizens Bank & Trust Co.11,093$1.19M0.1%+1.0%0.006%
7/15/2020Gateway Investment Advisers LLC2,864$0.31M0.0%-4.7%0.001%
7/15/2020BKD Wealth Advisors LLC6,067$0.65M0.0%+130.6%0.003%
7/15/2020Howe & Rusling Inc.94,686$10.18M1.9%+4.5%0.049%
7/14/2020Fortem Financial Group LLC8,094$0.87M0.7%+10.6%0.004%
7/14/2020Secure Asset Management LLC5,508$0.59M0.4%+9.7%0.003%
7/14/2020CENTRAL TRUST Co4,515$0.49M0.0%-12.6%0.002%
7/14/2020Wesbanco Bank Inc.2,037$0.22M0.0%N/A0.001%
7/13/2020Louisiana State Employees Retirement System8,300$0.89M0.1%+1.2%0.004%
7/13/2020MERIAN GLOBAL INVESTORS UK Ltd74,855$8.05M0.1%-86.3%0.039%
7/13/2020Veracity Capital LLC73,508$94K0.1%N/A0.038%
7/13/2020IFM Investors Pty Ltd13,050$1.40M0.1%-29.8%0.007%
7/10/2020Gradient Investments LLC248$27K0.0%-46.7%0.000%
7/10/2020Acorn Financial Advisory Services Inc. ADV3,191$0.35M0.2%N/A0.002%
7/10/2020Hexavest Inc.79,528$8.55M0.2%-35.0%0.041%
7/9/2020Legacy Private Trust Co.6,100$0.66M0.1%-32.8%0.003%
7/9/2020N.E.W. Advisory Services LLC1,910$0.21M0.1%N/A0.001%
7/8/2020IBM Retirement Fund6,053$0.65M0.1%+1.9%0.003%
7/6/2020Hummer Financial Advisory Services Inc5,583$0.61M0.8%+3.7%0.003%
7/6/2020State of Alaska Department of Revenue56,860$6.11M0.1%-44.9%0.030%
7/6/2020Farmers Trust Co.1,935$0.21M0.1%N/A0.001%
7/6/2020Fulton Bank N. A.10,108$1.09M0.1%+16.3%0.005%
7/2/2020Nelson Van Denburg & Campbell Wealth Management Group LLC3,085$0.33M0.1%-16.0%0.002%
6/19/2020State Street Corp10,338,542$992.32M0.1%+1.8%5.368%
6/16/2020Royal Bank of Canada949,901$90.21M0.0%+10.9%0.493%
6/11/2020New Mexico Educational Retirement Board12,096$1.15M0.1%-14.5%0.006%
6/5/2020Skandinaviska Enskilda Banken AB publ31,357$2.98M0.0%+4.5%0.016%
6/2/2020Guggenheim Capital LLC112,744$10.71M0.1%-4.6%0.059%
5/28/2020Optimal Asset Management Inc.24,424$2.32M0.2%+85.1%0.013%
5/28/2020State of Tennessee Treasury Department45,166$4.29M0.0%-1.3%0.023%
5/27/2020National Pension Service276,462$26.26M0.1%+2.2%0.144%
5/26/2020Morgan Stanley381,410$36.22M0.0%-8.8%0.198%
5/26/2020UMB Bank N A MO2,335$0.22M0.0%+8.4%0.001%
5/23/2020The Manufacturers Life Insurance Company611,814$58.10M0.1%+4.2%0.318%
5/22/2020Clearbridge Investments LLC247,894$23.54M0.0%-1.0%0.129%
5/22/2020Integrated Investment Consultants LLC2,164$0.21M0.1%-22.7%0.001%
5/22/2020Patton Albertson Miller Group LLC19,846$1.89M0.6%+5.2%0.010%
5/21/2020HighTower Advisors LLC10,841$1.03M0.0%-20.7%0.006%
5/20/2020Johnson Investment Counsel Inc.6,942$0.67M0.0%+1.8%0.004%
(Data available from 1/1/2016 forward)
This page was last updated on 8/3/2020 by MarketBeat.com Staff

Enter your email address below to receive a concise daily summary of analysts' upgrades, downgrades and new coverage with MarketBeat.com's FREE daily email newsletter.